Observations for ROME URBE IT-AFB, Italy (LIRU)

LIRU 200600Z VRB03KT CAVOK 09/09 Q1026
LIRU 191750Z VRB02KT CAVOK 16/07 Q1026  
LIRU 191650Z 25005KT CAVOK 19/05 Q1025  
LIRU 191550Z 22007KT CAVOK 20/06 Q1025  
LIRU 191450Z 26009KT CAVOK 20/05 Q1025  
LIRU 191350Z 26010KT CAVOK 21/06 Q1025  
LIRU 191250Z 23010KT CAVOK 21/06 Q1025  
LIRU 191150Z 32005KT 9999 FEW025 23/06 Q1026
LIRU 191050Z 29005KT CAVOK 22/06 Q1026  
LIRU 190950Z VRB03KT CAVOK 21/05 Q1027  
LIRU 190850Z 35005KT CAVOK 19/06 Q1027  
LIRU 190750Z 36005KT CAVOK 17/07 Q1027  
LIRU 190650Z VRB01KT CAVOK 13/10 Q1027  
LIRU 190600Z VRB03KT 9999 SCT045 11/10 Q1026